sensor_id;sensor_type;location;lat;lon;timestamp;temperature;humidity
3256;DHT22;1640;48.504;9.224;2024-01-30T00:02:02;2.60;99.90
3256;DHT22;1640;48.504;9.224;2024-01-30T00:04:30;2.50;99.90
3256;DHT22;1640;48.504;9.224;2024-01-30T00:06:59;2.50;99.90
3256;DHT22;1640;48.504;9.224;2024-01-30T00:09:26;2.40;99.90
3256;DHT22;1640;48.504;9.224;2024-01-30T00:11:54;2.30;99.90
3256;DHT22;1640;48.504;9.224;2024-01-30T00:14:21;2.20;99.90
3256;DHT22;1640;48.504;9.224;2024-01-30T00:16:49;2.20;99.90
3256;DHT22;1640;48.504;9.224;2024-01-30T00:19:17;2.20;99.90
3256;DHT22;1640;48.504;9.224;2024-01-30T00:21:45;2.20;99.90
3256;DHT22;1640;48.504;9.224;2024-01-30T00:24:13;2.10;99.90
3256;DHT22;1640;48.504;9.224;2024-01-30T00:26:41;2.10;99.90
3256;DHT22;1640;48.504;9.224;2024-01-30T00:29:08;2.10;99.90
3256;DHT22;1640;48.504;9.224;2024-01-30T00:31:36;2.00;99.90
3256;DHT22;1640;48.504;9.224;2024-01-30T00:34:03;2.00;99.90
3256;DHT22;1640;48.504;9.224;2024-01-30T00:36:31;2.00;99.90
3256;DHT22;1640;48.504;9.224;2024-01-30T00:38:58;1.90;99.90
3256;DHT22;1640;48.504;9.224;2024-01-30T00:41:27;1.80;99.90
3256;DHT22;1640;48.504;9.224;2024-01-30T00:43:54;1.80;99.90
3256;DHT22;1640;48.504;9.224;2024-01-30T00:46:22;1.90;99.90
3256;DHT22;1640;48.504;9.224;2024-01-30T00:48:49;1.90;99.90
3256;DHT22;1640;48.504;9.224;2024-01-30T00:51:16;1.90;99.90
3256;DHT22;1640;48.504;9.224;2024-01-30T00:53:45;1.90;99.90
3256;DHT22;1640;48.504;9.224;2024-01-30T00:56:12;2.00;99.90
3256;DHT22;1640;48.504;9.224;2024-01-30T00:58:41;2.00;99.90
3256;DHT22;1640;48.504;9.224;2024-01-30T01:01:08;2.00;99.90
3256;DHT22;1640;48.504;9.224;2024-01-30T01:03:36;2.10;99.90
3256;DHT22;1640;48.504;9.224;2024-01-30T01:06:04;2.10;99.90
3256;DHT22;1640;48.504;9.224;2024-01-30T01:08:31;2.20;99.90
3256;DHT22;1640;48.504;9.224;2024-01-30T01:10:59;2.30;99.90
3256;DHT22;1640;48.504;9.224;2024-01-30T01:13:26;2.30;99.90
3256;DHT22;1640;48.504;9.224;2024-01-30T01:15:55;2.30;99.90
3256;DHT22;1640;48.504;9.224;2024-01-30T01:18:23;2.40;99.90
3256;DHT22;1640;48.504;9.224;2024-01-30T01:20:50;2.40;99.90
3256;DHT22;1640;48.504;9.224;2024-01-30T01:23:17;2.40;99.90
3256;DHT22;1640;48.504;9.224;2024-01-30T01:25:45;2.40;99.90
3256;DHT22;1640;48.504;9.224;2024-01-30T01:28:12;2.30;99.90
3256;DHT22;1640;48.504;9.224;2024-01-30T01:30:40;2.30;99.90
3256;DHT22;1640;48.504;9.224;2024-01-30T01:33:09;2.30;99.90
3256;DHT22;1640;48.504;9.224;2024-01-30T01:35:37;2.40;99.90
3256;DHT22;1640;48.504;9.224;2024-01-30T01:38:05;2.40;99.90
3256;DHT22;1640;48.504;9.224;2024-01-30T01:40:32;2.40;99.90
3256;DHT22;1640;48.504;9.224;2024-01-30T01:43:03;2.40;99.90
3256;DHT22;1640;48.504;9.224;2024-01-30T01:45:31;2.40;99.90
3256;DHT22;1640;48.504;9.224;2024-01-30T01:47:58;2.50;99.90
3256;DHT22;1640;48.504;9.224;2024-01-30T01:50:27;2.60;99.90
3256;DHT22;1640;48.504;9.224;2024-01-30T01:52:55;2.60;99.90
3256;DHT22;1640;48.504;9.224;2024-01-30T01:55:23;2.60;99.90
3256;DHT22;1640;48.504;9.224;2024-01-30T01:57:53;2.60;99.90
3256;DHT22;1640;48.504;9.224;2024-01-30T02:00:20;2.70;99.90
3256;DHT22;1640;48.504;9.224;2024-01-30T02:02:48;2.70;99.90
3256;DHT22;1640;48.504;9.224;2024-01-30T02:05:17;2.70;99.90
3256;DHT22;1640;48.504;9.224;2024-01-30T02:07:45;2.60;99.90
3256;DHT22;1640;48.504;9.224;2024-01-30T02:10:13;2.60;99.90
3256;DHT22;1640;48.504;9.224;2024-01-30T02:12:40;2.60;99.90
3256;DHT22;1640;48.504;9.224;2024-01-30T02:15:08;2.50;99.90
3256;DHT22;1640;48.504;9.224;2024-01-30T02:17:36;2.40;99.90
3256;DHT22;1640;48.504;9.224;2024-01-30T02:20:04;2.30;99.90
3256;DHT22;1640;48.504;9.224;2024-01-30T02:22:34;2.20;99.90
3256;DHT22;1640;48.504;9.224;2024-01-30T02:25:01;2.10;99.90
3256;DHT22;1640;48.504;9.224;2024-01-30T02:27:29;2.10;99.90
3256;DHT22;1640;48.504;9.224;2024-01-30T02:29:57;2.10;99.90
3256;DHT22;1640;48.504;9.224;2024-01-30T02:32:24;2.10;99.90
3256;DHT22;1640;48.504;9.224;2024-01-30T02:34:51;2.10;99.90
3256;DHT22;1640;48.504;9.224;2024-01-30T02:37:19;2.00;99.90
3256;DHT22;1640;48.504;9.224;2024-01-30T02:39:48;1.90;99.90
3256;DHT22;1640;48.504;9.224;2024-01-30T02:42:15;1.80;99.90
3256;DHT22;1640;48.504;9.224;2024-01-30T02:44:43;1.80;99.90
3256;DHT22;1640;48.504;9.224;2024-01-30T02:47:10;1.70;99.90
3256;DHT22;1640;48.504;9.224;2024-01-30T02:49:37;1.60;99.90
3256;DHT22;1640;48.504;9.224;2024-01-30T02:52:05;1.60;99.90
3256;DHT22;1640;48.504;9.224;2024-01-30T02:54:33;1.50;99.90
3256;DHT22;1640;48.504;9.224;2024-01-30T02:57:01;1.40;99.90
3256;DHT22;1640;48.504;9.224;2024-01-30T02:59:29;1.40;99.90
3256;DHT22;1640;48.504;9.224;2024-01-30T03:01:59;1.40;99.90
3256;DHT22;1640;48.504;9.224;2024-01-30T03:04:26;1.40;99.90
3256;DHT22;1640;48.504;9.224;2024-01-30T03:06:56;1.40;99.90
3256;DHT22;1640;48.504;9.224;2024-01-30T03:09:23;1.60;99.90
3256;DHT22;1640;48.504;9.224;2024-01-30T03:11:50;1.60;99.90
3256;DHT22;1640;48.504;9.224;2024-01-30T03:14:19;1.60;99.90
3256;DHT22;1640;48.504;9.224;2024-01-30T03:16:47;1.60;99.90
3256;DHT22;1640;48.504;9.224;2024-01-30T03:19:14;1.60;99.90
3256;DHT22;1640;48.504;9.224;2024-01-30T03:21:42;1.50;99.90
3256;DHT22;1640;48.504;9.224;2024-01-30T03:24:09;1.40;99.90
3256;DHT22;1640;48.504;9.224;2024-01-30T03:26:37;1.40;99.90
3256;DHT22;1640;48.504;9.224;2024-01-30T03:29:04;1.40;99.90
3256;DHT22;1640;48.504;9.224;2024-01-30T03:31:33;1.40;99.90
3256;DHT22;1640;48.504;9.224;2024-01-30T03:34:00;1.50;99.90
3256;DHT22;1640;48.504;9.224;2024-01-30T03:36:28;1.50;99.90
3256;DHT22;1640;48.504;9.224;2024-01-30T03:38:58;1.50;99.90
3256;DHT22;1640;48.504;9.224;2024-01-30T03:41:26;1.50;99.90
3256;DHT22;1640;48.504;9.224;2024-01-30T03:43:54;1.50;99.90
3256;DHT22;1640;48.504;9.224;2024-01-30T03:46:21;1.50;99.90
3256;DHT22;1640;48.504;9.224;2024-01-30T03:48:50;1.50;99.90
3256;DHT22;1640;48.504;9.224;2024-01-30T03:51:17;1.50;99.90
3256;DHT22;1640;48.504;9.224;2024-01-30T03:53:45;1.50;99.90
3256;DHT22;1640;48.504;9.224;2024-01-30T03:56:13;1.50;99.90
3256;DHT22;1640;48.504;9.224;2024-01-30T03:58:40;1.40;99.90
3256;DHT22;1640;48.504;9.224;2024-01-30T04:01:13;1.40;99.90
3256;DHT22;1640;48.504;9.224;2024-01-30T04:03:41;1.40;99.90
3256;DHT22;1640;48.504;9.224;2024-01-30T04:06:11;1.40;99.90
3256;DHT22;1640;48.504;9.224;2024-01-30T04:08:39;1.30;99.90
3256;DHT22;1640;48.504;9.224;2024-01-30T04:11:06;1.30;99.90
3256;DHT22;1640;48.504;9.224;2024-01-30T04:13:34;1.20;99.90
3256;DHT22;1640;48.504;9.224;2024-01-30T04:16:02;1.10;99.90
3256;DHT22;1640;48.504;9.224;2024-01-30T04:18:30;1.10;99.90
3256;DHT22;1640;48.504;9.224;2024-01-30T04:20:58;1.10;99.90
3256;DHT22;1640;48.504;9.224;2024-01-30T04:23:27;1.10;99.90
3256;DHT22;1640;48.504;9.224;2024-01-30T04:25:54;1.00;99.90
3256;DHT22;1640;48.504;9.224;2024-01-30T04:28:22;1.00;99.90
3256;DHT22;1640;48.504;9.224;2024-01-30T04:30:49;1.00;99.90
3256;DHT22;1640;48.504;9.224;2024-01-30T04:33:17;1.00;99.90
3256;DHT22;1640;48.504;9.224;2024-01-30T04:35:44;1.00;99.90
3256;DHT22;1640;48.504;9.224;2024-01-30T04:38:11;0.90;99.90
3256;DHT22;1640;48.504;9.224;2024-01-30T04:40:41;0.90;99.90
3256;DHT22;1640;48.504;9.224;2024-01-30T04:43:09;0.80;99.90
3256;DHT22;1640;48.504;9.224;2024-01-30T04:45:36;0.80;99.90
3256;DHT22;1640;48.504;9.224;2024-01-30T04:48:04;0.80;99.90
3256;DHT22;1640;48.504;9.224;2024-01-30T04:50:32;0.70;99.90
3256;DHT22;1640;48.504;9.224;2024-01-30T04:52:59;0.70;99.90
3256;DHT22;1640;48.504;9.224;2024-01-30T04:55:27;0.60;99.90
3256;DHT22;1640;48.504;9.224;2024-01-30T04:57:56;0.70;99.90
3256;DHT22;1640;48.504;9.224;2024-01-30T05:00:23;0.70;99.90
3256;DHT22;1640;48.504;9.224;2024-01-30T05:02:51;0.70;99.90
3256;DHT22;1640;48.504;9.224;2024-01-30T05:05:18;0.70;99.90
3256;DHT22;1640;48.504;9.224;2024-01-30T05:07:47;0.90;99.90
3256;DHT22;1640;48.504;9.224;2024-01-30T05:10:14;1.00;99.90
3256;DHT22;1640;48.504;9.224;2024-01-30T05:12:42;1.10;99.90
3256;DHT22;1640;48.504;9.224;2024-01-30T05:15:11;1.10;99.90
3256;DHT22;1640;48.504;9.224;2024-01-30T05:17:38;1.10;99.90
3256;DHT22;1640;48.504;9.224;2024-01-30T05:20:06;1.20;99.90
3256;DHT22;1640;48.504;9.224;2024-01-30T05:22:35;1.30;99.90
3256;DHT22;1640;48.504;9.224;2024-01-30T05:25:04;1.30;99.90
3256;DHT22;1640;48.504;9.224;2024-01-30T05:27:31;1.30;99.90
3256;DHT22;1640;48.504;9.224;2024-01-30T05:29:59;1.30;99.90
3256;DHT22;1640;48.504;9.224;2024-01-30T05:32:28;1.30;99.90
3256;DHT22;1640;48.504;9.224;2024-01-30T05:34:55;1.30;99.90
3256;DHT22;1640;48.504;9.224;2024-01-30T05:37:23;1.20;99.90
3256;DHT22;1640;48.504;9.224;2024-01-30T05:39:50;1.20;99.90
3256;DHT22;1640;48.504;9.224;2024-01-30T05:42:18;1.10;99.90
3256;DHT22;1640;48.504;9.224;2024-01-30T05:44:45;1.20;99.90
3256;DHT22;1640;48.504;9.224;2024-01-30T05:47:12;1.20;99.90
3256;DHT22;1640;48.504;9.224;2024-01-30T05:49:41;1.30;99.90
3256;DHT22;1640;48.504;9.224;2024-01-30T05:52:09;1.30;99.90
3256;DHT22;1640;48.504;9.224;2024-01-30T05:54:36;1.30;99.90
3256;DHT22;1640;48.504;9.224;2024-01-30T05:57:05;1.40;99.90
3256;DHT22;1640;48.504;9.224;2024-01-30T05:59:32;1.40;99.90
3256;DHT22;1640;48.504;9.224;2024-01-30T06:02:02;1.50;99.90
3256;DHT22;1640;48.504;9.224;2024-01-30T06:04:30;1.50;99.90
3256;DHT22;1640;48.504;9.224;2024-01-30T06:06:59;1.50;99.90
3256;DHT22;1640;48.504;9.224;2024-01-30T06:09:27;1.60;99.90
3256;DHT22;1640;48.504;9.224;2024-01-30T06:11:55;1.70;99.90
3256;DHT22;1640;48.504;9.224;2024-01-30T06:14:23;1.70;99.90
3256;DHT22;1640;48.504;9.224;2024-01-30T06:16:50;1.60;99.90
3256;DHT22;1640;48.504;9.224;2024-01-30T06:19:18;1.50;99.90
3256;DHT22;1640;48.504;9.224;2024-01-30T06:21:45;1.40;99.90
3256;DHT22;1640;48.504;9.224;2024-01-30T06:24:14;1.40;99.90
3256;DHT22;1640;48.504;9.224;2024-01-30T06:26:41;1.30;99.90
3256;DHT22;1640;48.504;9.224;2024-01-30T06:29:09;1.20;99.90
3256;DHT22;1640;48.504;9.224;2024-01-30T06:31:40;1.20;99.90
3256;DHT22;1640;48.504;9.224;2024-01-30T06:34:07;1.10;99.90
3256;DHT22;1640;48.504;9.224;2024-01-30T06:36:35;1.10;99.90
3256;DHT22;1640;48.504;9.224;2024-01-30T06:39:03;1.00;99.90
3256;DHT22;1640;48.504;9.224;2024-01-30T06:41:31;1.00;99.90
3256;DHT22;1640;48.504;9.224;2024-01-30T06:43:59;0.90;99.90
3256;DHT22;1640;48.504;9.224;2024-01-30T06:46:26;0.80;99.90
3256;DHT22;1640;48.504;9.224;2024-01-30T06:48:54;0.80;99.90
3256;DHT22;1640;48.504;9.224;2024-01-30T06:51:21;0.90;99.90
3256;DHT22;1640;48.504;9.224;2024-01-30T06:53:49;0.90;99.90
3256;DHT22;1640;48.504;9.224;2024-01-30T06:56:16;0.90;99.90
3256;DHT22;1640;48.504;9.224;2024-01-30T06:58:48;0.90;99.90
3256;DHT22;1640;48.504;9.224;2024-01-30T07:01:16;0.90;99.90
3256;DHT22;1640;48.504;9.224;2024-01-30T07:03:43;0.90;99.90
3256;DHT22;1640;48.504;9.224;2024-01-30T07:06:11;0.90;99.90
3256;DHT22;1640;48.504;9.224;2024-01-30T07:08:38;0.90;99.90
3256;DHT22;1640;48.504;9.224;2024-01-30T07:11:06;0.90;99.90
3256;DHT22;1640;48.504;9.224;2024-01-30T07:13:34;1.00;99.90
3256;DHT22;1640;48.504;9.224;2024-01-30T07:16:04;1.00;99.90
3256;DHT22;1640;48.504;9.224;2024-01-30T07:18:31;1.00;99.90
3256;DHT22;1640;48.504;9.224;2024-01-30T07:20:59;1.10;99.90
3256;DHT22;1640;48.504;9.224;2024-01-30T07:23:26;1.20;99.90
3256;DHT22;1640;48.504;9.224;2024-01-30T07:25:55;1.20;99.90
3256;DHT22;1640;48.504;9.224;2024-01-30T07:28:23;1.30;99.90
3256;DHT22;1640;48.504;9.224;2024-01-30T07:30:50;1.40;99.90
3256;DHT22;1640;48.504;9.224;2024-01-30T07:33:19;1.50;99.90
3256;DHT22;1640;48.504;9.224;2024-01-30T07:35:46;1.50;99.90
3256;DHT22;1640;48.504;9.224;2024-01-30T07:38:14;1.50;99.90
3256;DHT22;1640;48.504;9.224;2024-01-30T07:40:41;1.60;99.90
3256;DHT22;1640;48.504;9.224;2024-01-30T07:43:09;1.60;99.90
3256;DHT22;1640;48.504;9.224;2024-01-30T07:45:37;1.80;99.90
3256;DHT22;1640;48.504;9.224;2024-01-30T07:48:06;1.80;99.90
3256;DHT22;1640;48.504;9.224;2024-01-30T07:50:34;2.00;99.90
3256;DHT22;1640;48.504;9.224;2024-01-30T07:53:02;2.00;99.90
3256;DHT22;1640;48.504;9.224;2024-01-30T07:55:30;2.10;99.90
3256;DHT22;1640;48.504;9.224;2024-01-30T07:57:58;2.20;99.90
3256;DHT22;1640;48.504;9.224;2024-01-30T08:00:26;2.30;99.90
3256;DHT22;1640;48.504;9.224;2024-01-30T08:02:55;2.40;99.90
3256;DHT22;1640;48.504;9.224;2024-01-30T08:05:22;2.50;99.90
3256;DHT22;1640;48.504;9.224;2024-01-30T08:07:51;2.70;99.90
3256;DHT22;1640;48.504;9.224;2024-01-30T08:10:19;2.80;99.90
3256;DHT22;1640;48.504;9.224;2024-01-30T08:12:47;3.00;99.90
3256;DHT22;1640;48.504;9.224;2024-01-30T08:15:14;3.20;3.70
3256;DHT22;1640;48.504;9.224;2024-01-30T08:17:43;3.30;10.10
3256;DHT22;1640;48.504;9.224;2024-01-30T08:20:11;3.50;15.20
3256;DHT22;1640;48.504;9.224;2024-01-30T08:22:39;3.60;26.60
3256;DHT22;1640;48.504;9.224;2024-01-30T08:25:09;3.70;31.40
3256;DHT22;1640;48.504;9.224;2024-01-30T08:27:36;3.80;33.40
3256;DHT22;1640;48.504;9.224;2024-01-30T08:30:05;3.90;33.50
3256;DHT22;1640;48.504;9.224;2024-01-30T08:32:33;4.00;34.30
3256;DHT22;1640;48.504;9.224;2024-01-30T08:35:01;4.10;33.90
3256;DHT22;1640;48.504;9.224;2024-01-30T08:37:29;4.10;37.50
3256;DHT22;1640;48.504;9.224;2024-01-30T08:39:57;4.10;40.20
3256;DHT22;1640;48.504;9.224;2024-01-30T08:42:26;4.10;39.90
3256;DHT22;1640;48.504;9.224;2024-01-30T08:44:53;4.20;36.80
3256;DHT22;1640;48.504;9.224;2024-01-30T08:47:22;4.30;40.70
3256;DHT22;1640;48.504;9.224;2024-01-30T08:49:49;4.20;45.70
3256;DHT22;1640;48.504;9.224;2024-01-30T08:52:17;4.20;40.00
3256;DHT22;1640;48.504;9.224;2024-01-30T08:54:44;4.30;42.80
3256;DHT22;1640;48.504;9.224;2024-01-30T08:57:12;4.40;46.60
3256;DHT22;1640;48.504;9.224;2024-01-30T08:59:41;4.40;48.20
3256;DHT22;1640;48.504;9.224;2024-01-30T09:02:10;4.40;47.80
3256;DHT22;1640;48.504;9.224;2024-01-30T09:04:39;4.50;47.40
3256;DHT22;1640;48.504;9.224;2024-01-30T09:07:08;4.70;44.90
3256;DHT22;1640;48.504;9.224;2024-01-30T09:09:37;4.90;51.30
3256;DHT22;1640;48.504;9.224;2024-01-30T09:12:06;4.90;54.40
3256;DHT22;1640;48.504;9.224;2024-01-30T09:14:35;4.90;58.10
3256;DHT22;1640;48.504;9.224;2024-01-30T09:17:04;4.90;58.80
3256;DHT22;1640;48.504;9.224;2024-01-30T09:19:31;4.90;57.80
3256;DHT22;1640;48.504;9.224;2024-01-30T09:21:59;4.90;58.20
3256;DHT22;1640;48.504;9.224;2024-01-30T09:24:27;5.00;57.40
3256;DHT22;1640;48.504;9.224;2024-01-30T09:26:54;5.10;56.70
3256;DHT22;1640;48.504;9.224;2024-01-30T09:29:22;5.10;56.90
3256;DHT22;1640;48.504;9.224;2024-01-30T09:31:49;5.20;56.30
3256;DHT22;1640;48.504;9.224;2024-01-30T09:34:18;5.40;58.20
3256;DHT22;1640;48.504;9.224;2024-01-30T09:36:45;5.50;61.30
3256;DHT22;1640;48.504;9.224;2024-01-30T09:39:13;5.70;60.10
3256;DHT22;1640;48.504;9.224;2024-01-30T09:41:47;5.90;63.90
3256;DHT22;1640;48.504;9.224;2024-01-30T09:44:16;6.10;65.50
3256;DHT22;1640;48.504;9.224;2024-01-30T09:46:47;6.20;67.50
3256;DHT22;1640;48.504;9.224;2024-01-30T09:49:14;6.30;69.00
3256;DHT22;1640;48.504;9.224;2024-01-30T09:51:45;6.50;70.00
3256;DHT22;1640;48.504;9.224;2024-01-30T09:54:14;6.70;71.10
3256;DHT22;1640;48.504;9.224;2024-01-30T09:56:42;6.80;73.10
3256;DHT22;1640;48.504;9.224;2024-01-30T09:59:09;6.90;72.60
3256;DHT22;1640;48.504;9.224;2024-01-30T10:01:37;7.10;73.50
3256;DHT22;1640;48.504;9.224;2024-01-30T10:04:05;7.20;73.60
3256;DHT22;1640;48.504;9.224;2024-01-30T10:06:33;7.20;73.10
3256;DHT22;1640;48.504;9.224;2024-01-30T10:09:02;7.30;74.20
3256;DHT22;1640;48.504;9.224;2024-01-30T10:11:30;7.40;72.90
3256;DHT22;1640;48.504;9.224;2024-01-30T10:13:58;7.40;73.80
3256;DHT22;1640;48.504;9.224;2024-01-30T10:16:25;7.50;74.50
3256;DHT22;1640;48.504;9.224;2024-01-30T10:18:53;7.60;75.20
3256;DHT22;1640;48.504;9.224;2024-01-30T10:21:21;7.60;75.80
3256;DHT22;1640;48.504;9.224;2024-01-30T10:23:49;7.80;75.80
3256;DHT22;1640;48.504;9.224;2024-01-30T10:26:18;7.90;75.60
3256;DHT22;1640;48.504;9.224;2024-01-30T10:28:46;8.20;75.90
3256;DHT22;1640;48.504;9.224;2024-01-30T10:31:16;8.50;76.40
3256;DHT22;1640;48.504;9.224;2024-01-30T10:33:45;8.70;76.50
3256;DHT22;1640;48.504;9.224;2024-01-30T10:36:14;8.90;76.80
3256;DHT22;1640;48.504;9.224;2024-01-30T10:38:42;8.90;76.80
3256;DHT22;1640;48.504;9.224;2024-01-30T10:41:13;9.00;76.80
3256;DHT22;1640;48.504;9.224;2024-01-30T10:43:50;9.00;76.80
3256;DHT22;1640;48.504;9.224;2024-01-30T10:46:27;9.10;76.80
3256;DHT22;1640;48.504;9.224;2024-01-30T10:48:58;9.20;76.80
3256;DHT22;1640;48.504;9.224;2024-01-30T10:51:26;9.20;76.50
3256;DHT22;1640;48.504;9.224;2024-01-30T10:53:56;9.30;76.40
3256;DHT22;1640;48.504;9.224;2024-01-30T10:56:24;9.40;76.20
3256;DHT22;1640;48.504;9.224;2024-01-30T10:58:53;9.40;76.10
3256;DHT22;1640;48.504;9.224;2024-01-30T11:01:22;9.60;76.10
3256;DHT22;1640;48.504;9.224;2024-01-30T11:03:51;9.70;76.10
3256;DHT22;1640;48.504;9.224;2024-01-30T11:06:19;9.80;75.90
3256;DHT22;1640;48.504;9.224;2024-01-30T11:09:00;9.90;76.10
3256;DHT22;1640;48.504;9.224;2024-01-30T11:11:29;10.10;74.90
3256;DHT22;1640;48.504;9.224;2024-01-30T11:14:02;10.20;74.90
3256;DHT22;1640;48.504;9.224;2024-01-30T11:16:32;10.40;74.20
3256;DHT22;1640;48.504;9.224;2024-01-30T11:19:00;10.60;73.90
3256;DHT22;1640;48.504;9.224;2024-01-30T11:21:28;10.90;72.90
3256;DHT22;1640;48.504;9.224;2024-01-30T11:23:57;10.90;72.30
3256;DHT22;1640;48.504;9.224;2024-01-30T11:26:28;11.10;72.10
3256;DHT22;1640;48.504;9.224;2024-01-30T11:28:55;11.30;71.50
3256;DHT22;1640;48.504;9.224;2024-01-30T11:31:24;11.60;72.80
3256;DHT22;1640;48.504;9.224;2024-01-30T11:33:53;11.70;71.30
3256;DHT22;1640;48.504;9.224;2024-01-30T11:36:25;11.70;70.90
3256;DHT22;1640;48.504;9.224;2024-01-30T11:38:54;11.70;68.60
3256;DHT22;1640;48.504;9.224;2024-01-30T11:41:22;11.60;67.80
3256;DHT22;1640;48.504;9.224;2024-01-30T11:43:54;11.60;67.90
3256;DHT22;1640;48.504;9.224;2024-01-30T11:46:22;11.70;67.00
3256;DHT22;1640;48.504;9.224;2024-01-30T11:48:53;11.80;67.80
3256;DHT22;1640;48.504;9.224;2024-01-30T11:51:21;11.90;65.30
3256;DHT22;1640;48.504;9.224;2024-01-30T11:53:49;12.00;64.30
3256;DHT22;1640;48.504;9.224;2024-01-30T11:56:17;12.00;64.00
3256;DHT22;1640;48.504;9.224;2024-01-30T11:58:45;11.80;65.60
3256;DHT22;1640;48.504;9.224;2024-01-30T12:01:12;11.80;66.50
3256;DHT22;1640;48.504;9.224;2024-01-30T12:03:40;11.80;67.00
3256;DHT22;1640;48.504;9.224;2024-01-30T12:06:09;11.90;66.90
3256;DHT22;1640;48.504;9.224;2024-01-30T12:08:39;11.90;66.00
3256;DHT22;1640;48.504;9.224;2024-01-30T12:11:07;11.90;65.00
3256;DHT22;1640;48.504;9.224;2024-01-30T12:13:38;11.90;65.00
3256;DHT22;1640;48.504;9.224;2024-01-30T12:16:06;12.00;63.70
3256;DHT22;1640;48.504;9.224;2024-01-30T12:18:34;12.20;63.00
3256;DHT22;1640;48.504;9.224;2024-01-30T12:21:01;12.20;59.50
3256;DHT22;1640;48.504;9.224;2024-01-30T12:23:30;12.10;60.40
3256;DHT22;1640;48.504;9.224;2024-01-30T12:25:58;12.10;59.70
3256;DHT22;1640;48.504;9.224;2024-01-30T12:28:25;12.40;60.10
3256;DHT22;1640;48.504;9.224;2024-01-30T12:30:55;12.30;59.00
3256;DHT22;1640;48.504;9.224;2024-01-30T12:33:26;12.50;58.90
3256;DHT22;1640;48.504;9.224;2024-01-30T12:35:54;12.70;58.20
3256;DHT22;1640;48.504;9.224;2024-01-30T12:38:22;12.90;57.40
3256;DHT22;1640;48.504;9.224;2024-01-30T12:40:54;13.00;56.30
3256;DHT22;1640;48.504;9.224;2024-01-30T12:43:21;13.00;55.40
3256;DHT22;1640;48.504;9.224;2024-01-30T12:45:49;13.10;55.50
3256;DHT22;1640;48.504;9.224;2024-01-30T12:48:17;13.30;56.30
3256;DHT22;1640;48.504;9.224;2024-01-30T12:50:44;13.30;55.00
3256;DHT22;1640;48.504;9.224;2024-01-30T12:53:12;13.30;55.20
3256;DHT22;1640;48.504;9.224;2024-01-30T12:55:39;13.40;54.80
3256;DHT22;1640;48.504;9.224;2024-01-30T12:58:08;13.50;53.90
3256;DHT22;1640;48.504;9.224;2024-01-30T13:00:36;13.40;54.70
3256;DHT22;1640;48.504;9.224;2024-01-30T13:03:04;13.40;54.80
3256;DHT22;1640;48.504;9.224;2024-01-30T13:05:31;13.30;55.50
3256;DHT22;1640;48.504;9.224;2024-01-30T13:07:59;13.30;56.30
3256;DHT22;1640;48.504;9.224;2024-01-30T13:10:26;13.30;56.30
3256;DHT22;1640;48.504;9.224;2024-01-30T13:12:53;13.40;55.90
3256;DHT22;1640;48.504;9.224;2024-01-30T13:15:22;13.40;55.90
3256;DHT22;1640;48.504;9.224;2024-01-30T13:17:50;13.30;55.90
3256;DHT22;1640;48.504;9.224;2024-01-30T13:20:20;13.30;55.40
3256;DHT22;1640;48.504;9.224;2024-01-30T13:22:48;13.20;56.10
3256;DHT22;1640;48.504;9.224;2024-01-30T13:25:16;13.20;56.10
3256;DHT22;1640;48.504;9.224;2024-01-30T13:27:44;13.20;55.60
3256;DHT22;1640;48.504;9.224;2024-01-30T13:30:11;13.10;57.00
3256;DHT22;1640;48.504;9.224;2024-01-30T13:32:41;13.20;55.90
3256;DHT22;1640;48.504;9.224;2024-01-30T13:35:10;13.10;56.30
3256;DHT22;1640;48.504;9.224;2024-01-30T13:37:37;13.10;56.70
3256;DHT22;1640;48.504;9.224;2024-01-30T13:40:06;13.10;56.90
3256;DHT22;1640;48.504;9.224;2024-01-30T13:42:35;13.10;56.90
3256;DHT22;1640;48.504;9.224;2024-01-30T13:45:03;13.20;56.70
3256;DHT22;1640;48.504;9.224;2024-01-30T13:47:30;13.20;57.50
3256;DHT22;1640;48.504;9.224;2024-01-30T13:49:59;13.40;57.40
3256;DHT22;1640;48.504;9.224;2024-01-30T13:52:26;13.40;57.00
3256;DHT22;1640;48.504;9.224;2024-01-30T13:54:54;13.40;57.10
3256;DHT22;1640;48.504;9.224;2024-01-30T13:57:21;13.40;56.90
3256;DHT22;1640;48.504;9.224;2024-01-30T13:59:49;13.40;56.10
3256;DHT22;1640;48.504;9.224;2024-01-30T14:02:17;13.40;56.60
3256;DHT22;1640;48.504;9.224;2024-01-30T14:04:44;13.40;57.80
3256;DHT22;1640;48.504;9.224;2024-01-30T14:07:13;13.40;57.80
3256;DHT22;1640;48.504;9.224;2024-01-30T14:09:40;13.50;57.30
3256;DHT22;1640;48.504;9.224;2024-01-30T14:12:08;13.70;56.70
3256;DHT22;1640;48.504;9.224;2024-01-30T14:14:35;13.60;57.00
3256;DHT22;1640;48.504;9.224;2024-01-30T14:17:03;13.70;57.00
3256;DHT22;1640;48.504;9.224;2024-01-30T14:19:33;13.70;57.30
3256;DHT22;1640;48.504;9.224;2024-01-30T14:22:00;13.70;56.60
3256;DHT22;1640;48.504;9.224;2024-01-30T14:24:29;13.70;56.90
3256;DHT22;1640;48.504;9.224;2024-01-30T14:26:56;13.60;56.70
3256;DHT22;1640;48.504;9.224;2024-01-30T14:29:25;13.70;57.10
3256;DHT22;1640;48.504;9.224;2024-01-30T14:31:53;13.70;57.00
3256;DHT22;1640;48.504;9.224;2024-01-30T14:34:21;13.70;56.90
3256;DHT22;1640;48.504;9.224;2024-01-30T14:36:48;13.80;56.60
3256;DHT22;1640;48.504;9.224;2024-01-30T14:39:16;13.80;56.60
3256;DHT22;1640;48.504;9.224;2024-01-30T14:41:45;13.80;56.20
3256;DHT22;1640;48.504;9.224;2024-01-30T14:44:13;13.70;56.60
3256;DHT22;1640;48.504;9.224;2024-01-30T14:46:41;13.60;56.20
3256;DHT22;1640;48.504;9.224;2024-01-30T14:49:08;13.60;57.00
3256;DHT22;1640;48.504;9.224;2024-01-30T14:51:36;13.60;56.70
3256;DHT22;1640;48.504;9.224;2024-01-30T14:54:04;13.60;56.50
3256;DHT22;1640;48.504;9.224;2024-01-30T14:56:31;13.60;55.80
3256;DHT22;1640;48.504;9.224;2024-01-30T14:59:01;13.60;56.10
3256;DHT22;1640;48.504;9.224;2024-01-30T15:01:28;13.50;56.30
3256;DHT22;1640;48.504;9.224;2024-01-30T15:03:56;13.50;56.20
3256;DHT22;1640;48.504;9.224;2024-01-30T15:06:23;13.40;56.60
3256;DHT22;1640;48.504;9.224;2024-01-30T15:08:52;13.30;56.90
3256;DHT22;1640;48.504;9.224;2024-01-30T15:11:19;13.20;56.70
3256;DHT22;1640;48.504;9.224;2024-01-30T15:13:47;13.20;57.00
3256;DHT22;1640;48.504;9.224;2024-01-30T15:16:16;13.10;57.30
3256;DHT22;1640;48.504;9.224;2024-01-30T15:18:43;13.00;57.70
3256;DHT22;1640;48.504;9.224;2024-01-30T15:21:11;12.80;58.00
3256;DHT22;1640;48.504;9.224;2024-01-30T15:23:38;12.70;58.50
3256;DHT22;1640;48.504;9.224;2024-01-30T15:26:06;12.60;58.60
3256;DHT22;1640;48.504;9.224;2024-01-30T15:28:34;12.50;59.30
3256;DHT22;1640;48.504;9.224;2024-01-30T15:31:03;12.40;59.70
3256;DHT22;1640;48.504;9.224;2024-01-30T15:33:33;12.20;60.60
3256;DHT22;1640;48.504;9.224;2024-01-30T15:36:01;12.10;61.10
3256;DHT22;1640;48.504;9.224;2024-01-30T15:38:28;12.00;61.40
3256;DHT22;1640;48.504;9.224;2024-01-30T15:40:56;11.90;61.90
3256;DHT22;1640;48.504;9.224;2024-01-30T15:43:24;11.90;62.30
3256;DHT22;1640;48.504;9.224;2024-01-30T15:45:51;11.70;64.00
3256;DHT22;1640;48.504;9.224;2024-01-30T15:48:19;11.70;64.00
3256;DHT22;1640;48.504;9.224;2024-01-30T15:50:48;11.60;64.20
3256;DHT22;1640;48.504;9.224;2024-01-30T15:53:15;11.50;64.30
3256;DHT22;1640;48.504;9.224;2024-01-30T15:55:43;11.30;64.90
3256;DHT22;1640;48.504;9.224;2024-01-30T15:58:10;11.30;65.00
3256;DHT22;1640;48.504;9.224;2024-01-30T16:00:38;11.20;65.30
3256;DHT22;1640;48.504;9.224;2024-01-30T16:03:05;11.10;65.70
3256;DHT22;1640;48.504;9.224;2024-01-30T16:05:33;11.10;66.90
3256;DHT22;1640;48.504;9.224;2024-01-30T16:08:02;10.90;66.60
3256;DHT22;1640;48.504;9.224;2024-01-30T16:10:29;10.90;67.00
3256;DHT22;1640;48.504;9.224;2024-01-30T16:12:57;10.80;67.00
3256;DHT22;1640;48.504;9.224;2024-01-30T16:15:24;10.80;67.60
3256;DHT22;1640;48.504;9.224;2024-01-30T16:17:52;10.70;67.90